Time;durP1;ratioP1;P1;durP2;ratioP2;P2;SDS_P1;SDS_P2;PMS_P1;PMS_P2;Temp;Humidity;BMP_temperature;BMP_pressure;BME280_temperature;BME280_humidity;BME280_pressure;Samples;Min_cycle;Max_cycle;Signal;HPM_P1;HPM_P2
2023/06/08 00:01:11;;;;;;;;;;;21.80;57.10;;;;;;5057771;28;19964;-77
2023/06/08 00:03:39;;;;;;;;;;;21.80;57.20;;;;;;5054200;28;19929;-76
2023/06/08 00:06:06;;;;;;;;;;;21.70;57.20;;;;;;5057027;28;20543;-76
2023/06/08 00:08:34;;;;;;;;;;;21.70;57.30;;;;;;5057647;28;19928;-77
2023/06/08 00:11:01;;;;;;;;;;;21.60;57.60;;;;;;5063622;28;19935;-76
2023/06/08 00:13:27;;;;;;;;;;;21.60;57.40;;;;;;5053865;28;19933;-76
2023/06/08 00:15:55;;;;;;;;;;;21.60;57.50;;;;;;5056097;28;19974;-76
2023/06/08 00:18:22;;;;;;;;;;;21.60;57.60;;;;;;5057584;28;19936;-75
2023/06/08 00:20:51;;;;;;;;;;;21.50;57.70;;;;;;5055459;28;19932;-76
2023/06/08 00:23:18;;;;;;;;;;;21.50;57.70;;;;;;5060034;28;19939;-76
2023/06/08 00:25:44;;;;;;;;;;;21.50;57.80;;;;;;5056716;28;20504;-76
2023/06/08 00:28:11;;;;;;;;;;;21.40;57.90;;;;;;5057986;28;20414;-76
2023/06/08 00:30:37;;;;;;;;;;;21.40;57.90;;;;;;5061711;28;19933;-76
2023/06/08 00:33:05;;;;;;;;;;;21.40;58.00;;;;;;5063455;28;19958;-77
2023/06/08 00:35:32;;;;;;;;;;;21.30;58.10;;;;;;5055044;28;19978;-76
2023/06/08 00:37:58;;;;;;;;;;;21.30;58.20;;;;;;5055252;28;19959;-76
2023/06/08 00:40:25;;;;;;;;;;;21.30;58.30;;;;;;5058153;28;19940;-76
2023/06/08 00:42:51;;;;;;;;;;;21.20;58.30;;;;;;5061216;28;19929;-75
2023/06/08 00:45:18;;;;;;;;;;;21.20;58.30;;;;;;5055678;28;19936;-76
2023/06/08 00:47:45;;;;;;;;;;;21.20;58.40;;;;;;5055080;28;19935;-76
2023/06/08 00:50:13;;;;;;;;;;;21.20;58.50;;;;;;5067117;28;19935;-76
2023/06/08 00:52:40;;;;;;;;;;;21.10;58.50;;;;;;5067131;28;19993;-76
2023/06/08 00:55:07;;;;;;;;;;;21.10;58.60;;;;;;5071397;28;19986;-76
2023/06/08 00:57:35;;;;;;;;;;;21.10;58.60;;;;;;5070440;28;19982;-76
2023/06/08 01:00:04;;;;;;;;;;;21.00;58.70;;;;;;5054646;28;19982;-75
2023/06/08 01:02:31;;;;;;;;;;;21.00;58.80;;;;;;5061581;28;20661;-76
2023/06/08 01:05:02;;;;;;;;;;;20.90;58.80;;;;;;5065552;28;20461;-76
2023/06/08 01:07:35;;;;;;;;;;;20.90;58.90;;;;;;5058569;28;19935;-76
2023/06/08 01:10:03;;;;;;;;;;;20.90;58.90;;;;;;5050963;28;19976;-76
2023/06/08 01:12:32;;;;;;;;;;;20.90;59.00;;;;;;5064479;28;19936;-76
2023/06/08 01:15:01;;;;;;;;;;;20.80;59.00;;;;;;5050611;28;19983;-76
2023/06/08 01:17:32;;;;;;;;;;;20.80;59.00;;;;;;5048241;28;20357;-76
2023/06/08 01:20:09;;;;;;;;;;;20.70;59.00;;;;;;5054091;28;19928;-76
2023/06/08 01:22:44;;;;;;;;;;;20.70;59.10;;;;;;5058635;28;19928;-76
2023/06/08 01:25:12;;;;;;;;;;;20.70;59.20;;;;;;5060624;28;20394;-76
2023/06/08 01:27:39;;;;;;;;;;;20.60;59.20;;;;;;5061010;28;19982;-76
2023/06/08 01:30:06;;;;;;;;;;;20.60;59.20;;;;;;5056710;28;19932;-76
2023/06/08 01:32:32;;;;;;;;;;;20.60;59.30;;;;;;5057659;28;19983;-76
2023/06/08 01:34:59;;;;;;;;;;;20.60;59.40;;;;;;5057663;28;19951;-76
2023/06/08 01:37:30;;;;;;;;;;;20.50;59.40;;;;;;5050009;28;19967;-76
2023/06/08 01:39:59;;;;;;;;;;;20.50;60.10;;;;;;5056653;28;20397;-76
2023/06/08 01:42:28;;;;;;;;;;;20.50;59.60;;;;;;5052604;28;19929;-76
2023/06/08 01:44:57;;;;;;;;;;;20.40;59.50;;;;;;5061070;28;19975;-76
2023/06/08 01:47:26;;;;;;;;;;;20.40;59.50;;;;;;5051308;28;19929;-75
2023/06/08 01:49:53;;;;;;;;;;;20.40;59.60;;;;;;5052778;28;19933;-76
2023/06/08 01:52:20;;;;;;;;;;;20.40;59.70;;;;;;5052757;28;19928;-76
2023/06/08 01:54:47;;;;;;;;;;;20.30;59.60;;;;;;5052799;28;20409;-76
2023/06/08 01:57:13;;;;;;;;;;;20.30;59.70;;;;;;5073089;28;19928;-73
2023/06/08 01:59:41;;;;;;;;;;;20.30;59.80;;;;;;5055541;28;19939;-73
2023/06/08 02:02:07;;;;;;;;;;;20.20;59.80;;;;;;5064454;28;19952;-74
2023/06/08 02:04:34;;;;;;;;;;;20.20;59.90;;;;;;5064485;28;20741;-74
2023/06/08 02:07:01;;;;;;;;;;;20.20;59.90;;;;;;5061488;28;20303;-74
2023/06/08 02:09:27;;;;;;;;;;;20.10;59.90;;;;;;5063512;28;20460;-74
2023/06/08 02:12:02;;;;;;;;;;;20.10;59.90;;;;;;5062558;28;20548;-74
2023/06/08 02:14:29;;;;;;;;;;;20.10;59.90;;;;;;5057231;28;19932;-74
2023/06/08 02:17:00;;;;;;;;;;;20.00;60.00;;;;;;5065863;28;19928;-73
2023/06/08 02:19:27;;;;;;;;;;;20.00;60.00;;;;;;5066878;28;19978;-74
2023/06/08 02:21:53;;;;;;;;;;;20.00;60.10;;;;;;5056495;28;19929;-74
2023/06/08 02:24:20;;;;;;;;;;;19.90;60.00;;;;;;5070790;28;19986;-74
2023/06/08 02:26:46;;;;;;;;;;;19.90;60.10;;;;;;5064877;28;19928;-74
2023/06/08 02:29:13;;;;;;;;;;;19.90;60.30;;;;;;5061477;28;19928;-74
2023/06/08 02:31:39;;;;;;;;;;;19.90;60.40;;;;;;5061461;28;19990;-74
2023/06/08 02:34:07;;;;;;;;;;;19.90;60.40;;;;;;5066880;28;19928;-74
2023/06/08 02:36:34;;;;;;;;;;;19.80;60.40;;;;;;5067113;28;19928;-74
2023/06/08 02:39:00;;;;;;;;;;;19.80;60.50;;;;;;5065654;28;20469;-73
2023/06/08 02:41:27;;;;;;;;;;;19.70;60.50;;;;;;5072315;28;19974;-73
2023/06/08 02:43:53;;;;;;;;;;;19.70;60.50;;;;;;5067079;28;19932;-74
2023/06/08 02:46:20;;;;;;;;;;;19.70;60.60;;;;;;5073637;28;19927;-74
2023/06/08 02:48:46;;;;;;;;;;;19.70;60.60;;;;;;5061418;28;19998;-73
2023/06/08 02:51:16;;;;;;;;;;;19.60;60.60;;;;;;5068250;28;19928;-73
2023/06/08 02:53:43;;;;;;;;;;;19.60;60.70;;;;;;5066691;28;20014;-74
2023/06/08 02:56:09;;;;;;;;;;;19.60;60.70;;;;;;5069489;28;19935;-74
2023/06/08 02:58:36;;;;;;;;;;;19.60;60.80;;;;;;5062317;28;20314;-74
2023/06/08 03:01:04;;;;;;;;;;;19.50;60.80;;;;;;5068377;28;19928;-74
2023/06/08 03:03:31;;;;;;;;;;;19.50;60.90;;;;;;5072394;28;19928;-74
2023/06/08 03:05:59;;;;;;;;;;;19.50;61.00;;;;;;5072467;28;20321;-74
2023/06/08 03:08:28;;;;;;;;;;;19.50;61.00;;;;;;5069114;28;19971;-72
2023/06/08 03:10:55;;;;;;;;;;;19.40;61.00;;;;;;5064173;28;20051;-74
2023/06/08 03:13:22;;;;;;;;;;;19.40;61.10;;;;;;5064700;28;19933;-73
2023/06/08 03:15:48;;;;;;;;;;;19.40;61.20;;;;;;5062181;28;20301;-74
2023/06/08 03:18:16;;;;;;;;;;;19.40;61.20;;;;;;5058748;28;20563;-74
2023/06/08 03:20:43;;;;;;;;;;;19.30;61.20;;;;;;5060632;28;19976;-74
2023/06/08 03:23:10;;;;;;;;;;;19.30;61.30;;;;;;5054776;28;19955;-73
2023/06/08 03:25:38;;;;;;;;;;;19.30;61.40;;;;;;5060223;28;19932;-74
2023/06/08 03:28:05;;;;;;;;;;;19.20;61.30;;;;;;5058453;28;20027;-74
2023/06/08 03:30:31;;;;;;;;;;;19.20;61.40;;;;;;5054936;28;20348;-74
2023/06/08 03:32:58;;;;;;;;;;;19.20;61.40;;;;;;5066555;28;19932;-73
2023/06/08 03:35:24;;;;;;;;;;;19.20;61.50;;;;;;5052121;28;19929;-74
2023/06/08 03:37:51;;;;;;;;;;;19.20;61.50;;;;;;5054159;28;19932;-74
2023/06/08 03:40:17;;;;;;;;;;;19.10;61.50;;;;;;5065093;28;19978;-74
2023/06/08 03:42:45;;;;;;;;;;;19.10;61.60;;;;;;5057028;28;19974;-74
2023/06/08 03:45:12;;;;;;;;;;;19.10;61.60;;;;;;5063742;28;19990;-74
2023/06/08 03:47:38;;;;;;;;;;;19.00;61.60;;;;;;5063795;28;19932;-74
2023/06/08 03:50:05;;;;;;;;;;;19.00;61.70;;;;;;5062613;28;19924;-74
2023/06/08 03:52:32;;;;;;;;;;;19.00;61.80;;;;;;5065303;28;19978;-74
2023/06/08 03:54:58;;;;;;;;;;;19.00;61.80;;;;;;5062781;28;20412;-73
2023/06/08 03:57:25;;;;;;;;;;;19.00;61.90;;;;;;5063795;28;19924;-74
2023/06/08 03:59:53;;;;;;;;;;;19.00;61.90;;;;;;5065742;28;19921;-74
2023/06/08 04:02:19;;;;;;;;;;;18.90;61.90;;;;;;5079020;28;19924;-74
2023/06/08 04:04:47;;;;;;;;;;;18.90;62.00;;;;;;5064852;28;19933;-74
2023/06/08 04:07:14;;;;;;;;;;;18.90;62.10;;;;;;5052619;28;19947;-74
2023/06/08 04:09:40;;;;;;;;;;;18.80;62.10;;;;;;5051018;28;19951;-73
2023/06/08 04:12:07;;;;;;;;;;;18.80;62.20;;;;;;5064562;28;20813;-74
2023/06/08 04:14:34;;;;;;;;;;;18.80;62.20;;;;;;5057757;28;20449;-74
2023/06/08 04:17:02;;;;;;;;;;;18.80;62.30;;;;;;5067264;28;20404;-74
2023/06/08 04:19:28;;;;;;;;;;;18.80;62.50;;;;;;5068036;28;19928;-73
2023/06/08 04:21:56;;;;;;;;;;;18.70;62.50;;;;;;5066057;28;19928;-74
2023/06/08 04:24:23;;;;;;;;;;;18.70;62.60;;;;;;5063325;28;20023;-74
2023/06/08 04:26:50;;;;;;;;;;;18.70;62.70;;;;;;5072005;28;20173;-74
2023/06/08 04:29:16;;;;;;;;;;;18.70;62.70;;;;;;5067796;28;19925;-74
2023/06/08 04:31:43;;;;;;;;;;;18.70;62.70;;;;;;5060599;28;19925;-74
2023/06/08 04:34:11;;;;;;;;;;;18.60;62.80;;;;;;5064193;28;19925;-74
2023/06/08 04:36:38;;;;;;;;;;;18.60;63.00;;;;;;5065631;28;20418;-74
2023/06/08 04:39:04;;;;;;;;;;;18.60;63.00;;;;;;5063776;28;19971;-74
2023/06/08 04:41:31;;;;;;;;;;;18.60;63.10;;;;;;5062037;28;19932;-74
2023/06/08 04:44:01;;;;;;;;;;;18.60;63.20;;;;;;5065424;28;19924;-74
2023/06/08 04:46:27;;;;;;;;;;;18.50;63.30;;;;;;5062328;28;19939;-73
2023/06/08 04:48:55;;;;;;;;;;;18.50;63.30;;;;;;5052002;28;19924;-72
2023/06/08 04:51:24;;;;;;;;;;;18.50;63.40;;;;;;5061230;28;19924;-73
2023/06/08 04:53:51;;;;;;;;;;;18.50;63.50;;;;;;5065847;28;20015;-73
2023/06/08 04:56:19;;;;;;;;;;;18.50;63.70;;;;;;5057835;28;19931;-72
2023/06/08 04:58:46;;;;;;;;;;;18.50;63.80;;;;;;5062108;28;20440;-72
2023/06/08 05:01:12;;;;;;;;;;;18.50;63.80;;;;;;5053917;28;20421;-72
2023/06/08 05:03:39;;;;;;;;;;;18.50;63.90;;;;;;5059268;28;19935;-72
2023/06/08 05:06:05;;;;;;;;;;;18.50;64.00;;;;;;5060418;28;19933;-73
2023/06/08 05:08:33;;;;;;;;;;;18.50;64.10;;;;;;5070508;28;19928;-72
2023/06/08 05:11:00;;;;;;;;;;;18.50;64.30;;;;;;5058367;28;19932;-72
2023/06/08 05:13:26;;;;;;;;;;;18.40;64.20;;;;;;5060161;28;19936;-72
2023/06/08 05:15:54;;;;;;;;;;;18.50;64.40;;;;;;5067567;28;20402;-72
2023/06/08 05:18:20;;;;;;;;;;;18.40;64.50;;;;;;5073967;28;19932;-73
2023/06/08 05:20:47;;;;;;;;;;;18.50;64.70;;;;;;5067421;28;19954;-73
2023/06/08 05:23:14;;;;;;;;;;;18.50;64.80;;;;;;5061310;28;20306;-72
2023/06/08 05:25:41;;;;;;;;;;;18.50;64.90;;;;;;5064221;28;19932;-72
2023/06/08 05:28:08;;;;;;;;;;;18.40;64.90;;;;;;5065822;28;19974;-72
2023/06/08 05:30:35;;;;;;;;;;;18.50;65.00;;;;;;5051673;28;19933;-72
2023/06/08 05:33:01;;;;;;;;;;;18.50;65.40;;;;;;5059372;28;20464;-73
2023/06/08 05:35:28;;;;;;;;;;;18.50;65.60;;;;;;5063069;28;19986;-73
2023/06/08 05:37:54;;;;;;;;;;;18.50;65.40;;;;;;5053118;28;19932;-73
2023/06/08 05:40:21;;;;;;;;;;;18.50;65.30;;;;;;5062536;28;19933;-72
2023/06/08 05:42:49;;;;;;;;;;;18.50;65.40;;;;;;5057098;28;19935;-72
2023/06/08 05:45:16;;;;;;;;;;;18.50;65.40;;;;;;5057251;28;19936;-72
2023/06/08 05:47:43;;;;;;;;;;;18.60;65.50;;;;;;5069164;28;20652;-73
2023/06/08 05:50:09;;;;;;;;;;;18.60;66.00;;;;;;5056638;28;19975;-72
2023/06/08 05:52:36;;;;;;;;;;;18.60;66.10;;;;;;5060927;28;20515;-72
2023/06/08 05:55:02;;;;;;;;;;;18.60;66.30;;;;;;5062417;28;20611;-73
2023/06/08 05:57:29;;;;;;;;;;;18.70;66.50;;;;;;5066341;28;19928;-70
2023/06/08 05:59:57;;;;;;;;;;;18.60;66.60;;;;;;5059877;28;19929;-72
2023/06/08 06:02:23;;;;;;;;;;;18.70;66.60;;;;;;5061529;28;20337;-72
2023/06/08 06:04:50;;;;;;;;;;;18.70;66.50;;;;;;5057336;28;19985;-72
2023/06/08 06:07:16;;;;;;;;;;;18.70;66.80;;;;;;5069096;28;20047;-72
2023/06/08 06:09:43;;;;;;;;;;;18.70;66.60;;;;;;5055703;28;19929;-73
2023/06/08 06:12:10;;;;;;;;;;;18.70;66.50;;;;;;5055815;28;19929;-73
2023/06/08 06:14:37;;;;;;;;;;;18.80;67.10;;;;;;5052104;28;20389;-73
2023/06/08 06:17:05;;;;;;;;;;;18.80;66.60;;;;;;5072756;28;19928;-72
2023/06/08 06:19:36;;;;;;;;;;;18.80;66.80;;;;;;5056715;28;20016;-72
2023/06/08 06:22:02;;;;;;;;;;;18.80;66.80;;;;;;5066523;28;19931;-72
2023/06/08 06:24:29;;;;;;;;;;;18.90;67.00;;;;;;5055080;28;19935;-73
2023/06/08 06:26:55;;;;;;;;;;;18.90;66.90;;;;;;5068344;28;20419;-73
2023/06/08 06:29:23;;;;;;;;;;;18.90;66.90;;;;;;5050859;28;20416;-72
2023/06/08 06:31:49;;;;;;;;;;;18.90;66.70;;;;;;5066226;28;19929;-72
2023/06/08 06:34:18;;;;;;;;;;;19.00;66.90;;;;;;5058862;28;19928;-72
2023/06/08 06:36:45;;;;;;;;;;;19.00;67.00;;;;;;5055732;28;19928;-72
2023/06/08 06:39:12;;;;;;;;;;;19.00;67.30;;;;;;5063378;28;19938;-73
2023/06/08 06:41:39;;;;;;;;;;;19.10;67.30;;;;;;5065670;28;20003;-72
2023/06/08 06:44:06;;;;;;;;;;;19.10;67.10;;;;;;5061235;28;20430;-72
2023/06/08 06:46:32;;;;;;;;;;;19.20;67.20;;;;;;5068069;28;20318;-72
2023/06/08 06:48:59;;;;;;;;;;;19.10;67.90;;;;;;5065023;28;19973;-73
2023/06/08 06:51:26;;;;;;;;;;;19.20;67.00;;;;;;5063490;28;20035;-73
2023/06/08 06:53:53;;;;;;;;;;;19.20;66.80;;;;;;5063648;28;19935;-72
2023/06/08 06:56:20;;;;;;;;;;;19.20;66.90;;;;;;5070247;28;19932;-72
2023/06/08 06:58:46;;;;;;;;;;;19.20;66.70;;;;;;5073486;28;19928;-72
2023/06/08 07:01:14;;;;;;;;;;;19.20;66.70;;;;;;5053774;28;19932;-69
2023/06/08 07:03:42;;;;;;;;;;;19.30;66.90;;;;;;5064433;28;20339;-73
2023/06/08 07:06:09;;;;;;;;;;;19.20;66.80;;;;;;5060659;28;19971;-73
2023/06/08 07:08:37;;;;;;;;;;;19.30;67.00;;;;;;5056880;28;19933;-72
2023/06/08 07:11:04;;;;;;;;;;;19.30;67.10;;;;;;5060537;28;19974;-72
2023/06/08 07:13:31;;;;;;;;;;;19.30;67.20;;;;;;5054243;28;19930;-72
2023/06/08 07:15:57;;;;;;;;;;;19.30;67.40;;;;;;5048521;28;19939;-72
2023/06/08 07:18:24;;;;;;;;;;;19.30;67.40;;;;;;5062595;28;20319;-72
2023/06/08 07:20:51;;;;;;;;;;;19.30;67.30;;;;;;5069257;28;19928;-72
2023/06/08 07:23:18;;;;;;;;;;;19.30;67.40;;;;;;5061799;28;19928;-73
2023/06/08 07:25:45;;;;;;;;;;;19.30;67.40;;;;;;5060985;28;19929;-73
2023/06/08 07:28:12;;;;;;;;;;;19.40;67.50;;;;;;5048526;28;20385;-72
2023/06/08 07:30:38;;;;;;;;;;;19.40;67.30;;;;;;5060809;28;19955;-73
2023/06/08 07:33:06;;;;;;;;;;;19.40;67.20;;;;;;5061505;28;19932;-72
2023/06/08 07:35:32;;;;;;;;;;;19.40;67.10;;;;;;5069282;28;19932;-71
2023/06/08 07:37:59;;;;;;;;;;;19.50;67.30;;;;;;5063458;28;19928;-73
2023/06/08 07:40:25;;;;;;;;;;;19.40;67.50;;;;;;5058552;28;20341;-72
2023/06/08 07:42:53;;;;;;;;;;;19.50;67.50;;;;;;5054704;28;19936;-71
2023/06/08 07:45:20;;;;;;;;;;;19.50;67.60;;;;;;5068288;28;19928;-73
2023/06/08 07:47:46;;;;;;;;;;;19.50;67.50;;;;;;5066003;28;19928;-73
2023/06/08 07:50:13;;;;;;;;;;;19.50;67.20;;;;;;5068933;28;19936;-73
2023/06/08 07:52:40;;;;;;;;;;;19.50;67.20;;;;;;5061908;28;19928;-73
2023/06/08 07:55:07;;;;;;;;;;;19.50;67.20;;;;;;5058989;28;20321;-72
2023/06/08 07:57:36;;;;;;;;;;;19.60;67.30;;;;;;5072100;28;19935;-70
2023/06/08 08:00:05;;;;;;;;;;;19.60;67.20;;;;;;5069253;28;19935;-72
2023/06/08 08:02:31;;;;;;;;;;;19.60;67.00;;;;;;5070109;28;20468;-72
2023/06/08 08:04:58;;;;;;;;;;;19.60;67.10;;;;;;5061484;28;19935;-73
2023/06/08 08:07:24;;;;;;;;;;;19.60;67.40;;;;;;5060906;28;19928;-73
2023/06/08 08:09:51;;;;;;;;;;;19.60;67.40;;;;;;5053552;28;20410;-72
2023/06/08 08:12:17;;;;;;;;;;;19.70;67.20;;;;;;5053730;28;19929;-72
2023/06/08 08:14:44;;;;;;;;;;;19.70;67.00;;;;;;5058296;28;19933;-73
2023/06/08 08:17:12;;;;;;;;;;;19.70;67.00;;;;;;5056012;28;20717;-72
2023/06/08 08:19:40;;;;;;;;;;;19.70;67.00;;;;;;5050857;28;20452;-73
2023/06/08 08:22:07;;;;;;;;;;;19.80;67.10;;;;;;5047994;28;20394;-72
2023/06/08 08:24:33;;;;;;;;;;;19.70;67.10;;;;;;5069660;28;19929;-73
2023/06/08 08:27:00;;;;;;;;;;;19.80;67.30;;;;;;5056395;28;19994;-72
2023/06/08 08:29:26;;;;;;;;;;;19.80;67.60;;;;;;5059588;28;20417;-72
2023/06/08 08:31:53;;;;;;;;;;;19.80;67.50;;;;;;5060127;28;19940;-73
2023/06/08 08:34:21;;;;;;;;;;;19.80;67.20;;;;;;5056401;28;19973;-72
2023/06/08 08:36:47;;;;;;;;;;;19.80;68.20;;;;;;5067160;28;20339;-72
2023/06/08 08:39:14;;;;;;;;;;;19.90;67.70;;;;;;5054640;28;19977;-72
2023/06/08 08:41:42;;;;;;;;;;;19.90;67.70;;;;;;5057887;28;19929;-72
2023/06/08 08:44:09;;;;;;;;;;;19.90;67.60;;;;;;5057351;28;19981;-73
2023/06/08 08:46:37;;;;;;;;;;;20.00;67.70;;;;;;5056056;28;20073;-72
2023/06/08 08:49:06;;;;;;;;;;;20.00;67.60;;;;;;5076493;28;20350;-73
2023/06/08 08:51:38;;;;;;;;;;;20.00;67.60;;;;;;5065484;28;19940;-73
2023/06/08 08:54:05;;;;;;;;;;;20.10;67.70;;;;;;5055253;28;20040;-73
2023/06/08 08:56:36;;;;;;;;;;;20.10;67.40;;;;;;5062433;28;19954;-73
2023/06/08 08:59:03;;;;;;;;;;;20.20;67.80;;;;;;5061821;28;20408;-72
2023/06/08 09:01:32;;;;;;;;;;;20.20;67.60;;;;;;5061289;28;19924;-73
2023/06/08 09:03:58;;;;;;;;;;;20.20;67.30;;;;;;5062102;28;20483;-73
2023/06/08 09:06:27;;;;;;;;;;;20.30;67.20;;;;;;5067208;28;19932;-72
2023/06/08 09:08:55;;;;;;;;;;;20.40;67.00;;;;;;5063295;28;19956;-73
2023/06/08 09:11:22;;;;;;;;;;;20.40;67.20;;;;;;5069310;28;19928;-72
2023/06/08 09:13:49;;;;;;;;;;;20.50;67.10;;;;;;5052194;28;19924;-73
2023/06/08 09:16:17;;;;;;;;;;;20.50;66.80;;;;;;5064693;28;19954;-74
2023/06/08 09:18:43;;;;;;;;;;;20.50;66.50;;;;;;5066818;28;19961;-74
2023/06/08 09:21:19;;;;;;;;;;;20.60;66.40;;;;;;5060178;28;19931;-74
2023/06/08 09:23:46;;;;;;;;;;;20.60;66.20;;;;;;5061483;28;19932;-74
2023/06/08 09:26:28;;;;;;;;;;;20.60;66.10;;;;;;5061788;28;19932;-74
2023/06/08 09:28:55;;;;;;;;;;;20.70;66.10;;;;;;5054760;28;19983;-74
2023/06/08 09:31:21;;;;;;;;;;;20.70;65.90;;;;;;5050874;28;19928;-74
2023/06/08 09:33:48;;;;;;;;;;;20.70;65.80;;;;;;5056773;28;20040;-74
2023/06/08 09:36:16;;;;;;;;;;;20.70;65.80;;;;;;5065528;28;20485;-73
2023/06/08 09:38:43;;;;;;;;;;;20.80;65.80;;;;;;5053995;28;20222;-74
2023/06/08 09:41:15;;;;;;;;;;;20.80;65.70;;;;;;5061158;28;19924;-73
2023/06/08 09:43:42;;;;;;;;;;;20.80;65.60;;;;;;5055088;28;19929;-74
2023/06/08 09:46:11;;;;;;;;;;;20.80;65.40;;;;;;5068550;28;20202;-74
2023/06/08 09:48:39;;;;;;;;;;;20.80;65.30;;;;;;5064452;28;19924;-73
2023/06/08 09:51:05;;;;;;;;;;;20.90;65.30;;;;;;5059639;28;19932;-74
2023/06/08 09:53:34;;;;;;;;;;;20.90;65.30;;;;;;5062945;28;19933;-74
2023/06/08 09:56:02;;;;;;;;;;;20.90;65.20;;;;;;5067974;28;19928;-74
2023/06/08 09:58:30;;;;;;;;;;;21.00;65.20;;;;;;5056968;28;20401;-75
2023/06/08 10:01:00;;;;;;;;;;;21.00;65.00;;;;;;5063248;28;20353;-74
2023/06/08 10:03:30;;;;;;;;;;;21.00;65.10;;;;;;5055188;28;19928;-74
2023/06/08 10:05:58;;;;;;;;;;;21.00;65.10;;;;;;5067684;28;19939;-74
2023/06/08 10:08:26;;;;;;;;;;;21.00;65.30;;;;;;5053408;28;19937;-74
2023/06/08 10:10:53;;;;;;;;;;;21.10;65.40;;;;;;5064678;28;19982;-74
2023/06/08 10:13:20;;;;;;;;;;;21.10;65.30;;;;;;5054499;28;19933;-74
2023/06/08 10:15:48;;;;;;;;;;;21.10;65.20;;;;;;5066204;28;19928;-74
2023/06/08 10:18:15;;;;;;;;;;;21.20;65.20;;;;;;5074393;28;20001;-73
2023/06/08 10:20:41;;;;;;;;;;;21.20;65.10;;;;;;5070057;28;19976;-75
2023/06/08 10:23:08;;;;;;;;;;;21.20;65.00;;;;;;5066259;28;19929;-74
2023/06/08 10:25:35;;;;;;;;;;;21.30;65.10;;;;;;5077993;28;19928;-74
2023/06/08 10:28:04;;;;;;;;;;;21.30;65.10;;;;;;5073872;28;19928;-74
2023/06/08 10:30:39;;;;;;;;;;;21.30;65.00;;;;;;5063952;28;19932;-74
2023/06/08 10:33:10;;;;;;;;;;;21.40;64.80;;;;;;5069289;28;19939;-78
2023/06/08 10:35:37;;;;;;;;;;;21.40;64.60;;;;;;5050435;28;20066;-77
2023/06/08 10:38:08;;;;;;;;;;;21.40;64.40;;;;;;5057665;28;19944;-78
2023/06/08 10:40:41;;;;;;;;;;;21.50;64.40;;;;;;5058116;28;19944;-78
2023/06/08 10:43:08;;;;;;;;;;;21.50;64.10;;;;;;5057664;28;19928;-78
2023/06/08 10:45:37;;;;;;;;;;;21.60;63.80;;;;;;5057717;28;19928;-78
2023/06/08 10:48:04;;;;;;;;;;;21.60;63.60;;;;;;5061322;28;19928;-78
2023/06/08 10:50:37;;;;;;;;;;;21.70;63.50;;;;;;5062858;28;19928;-78
2023/06/08 10:53:04;;;;;;;;;;;21.80;63.20;;;;;;5055159;28;20349;-78
2023/06/08 10:55:30;;;;;;;;;;;21.80;62.40;;;;;;5061933;28;19932;-78
2023/06/08 10:58:05;;;;;;;;;;;21.90;62.30;;;;;;5061333;28;19932;-78
2023/06/08 11:00:45;;;;;;;;;;;22.00;62.00;;;;;;5051733;28;19932;-78
2023/06/08 11:03:16;;;;;;;;;;;22.10;61.50;;;;;;5059499;28;19936;-79
2023/06/08 11:05:45;;;;;;;;;;;22.20;61.10;;;;;;5061263;28;19959;-78
2023/06/08 11:08:12;;;;;;;;;;;22.30;60.90;;;;;;5058253;28;19929;-77
2023/06/08 11:10:39;;;;;;;;;;;22.30;60.60;;;;;;5057410;28;19939;-79
2023/06/08 11:13:07;;;;;;;;;;;22.40;60.40;;;;;;5058621;28;19994;-77
2023/06/08 11:15:35;;;;;;;;;;;22.60;60.40;;;;;;5055556;28;19944;-80
2023/06/08 11:18:02;;;;;;;;;;;22.60;59.40;;;;;;5053005;28;19928;-78
2023/06/08 11:20:29;;;;;;;;;;;22.70;59.10;;;;;;5056336;28;20136;-79
2023/06/08 11:22:57;;;;;;;;;;;22.80;58.80;;;;;;5056130;28;20476;-79
2023/06/08 11:25:24;;;;;;;;;;;22.90;59.30;;;;;;5062895;28;19970;-78
2023/06/08 11:27:53;;;;;;;;;;;22.90;58.60;;;;;;5055602;28;19928;-78
2023/06/08 11:30:20;;;;;;;;;;;23.10;58.40;;;;;;5055411;28;19925;-78
2023/06/08 11:32:47;;;;;;;;;;;23.10;58.10;;;;;;5056511;28;20401;-79
2023/06/08 11:35:14;;;;;;;;;;;23.20;57.90;;;;;;5058168;28;19985;-79
2023/06/08 11:37:41;;;;;;;;;;;23.30;57.40;;;;;;5064058;28;20388;-80
2023/06/08 11:40:13;;;;;;;;;;;23.40;56.90;;;;;;5056643;28;19929;-78
2023/06/08 11:42:40;;;;;;;;;;;23.40;56.00;;;;;;5054117;28;19929;-79
2023/06/08 11:45:08;;;;;;;;;;;23.50;56.20;;;;;;5060262;28;19928;-78
2023/06/08 11:47:34;;;;;;;;;;;23.50;56.00;;;;;;5053475;28;19932;-78
2023/06/08 11:50:03;;;;;;;;;;;23.70;55.80;;;;;;5058214;28;19928;-78
2023/06/08 11:52:33;;;;;;;;;;;23.70;55.70;;;;;;5054573;28;20046;-79
2023/06/08 11:55:01;;;;;;;;;;;23.80;55.00;;;;;;5057873;28;20039;-78
2023/06/08 11:57:39;;;;;;;;;;;23.80;55.10;;;;;;5058335;28;20477;-79
2023/06/08 12:00:08;;;;;;;;;;;23.90;54.50;;;;;;5053042;28;20038;-79
2023/06/08 12:02:35;;;;;;;;;;;24.00;54.50;;;;;;5057798;28;19932;-79
2023/06/08 12:05:01;;;;;;;;;;;24.10;54.50;;;;;;5053217;28;19928;-79
2023/06/08 12:07:28;;;;;;;;;;;24.10;53.80;;;;;;5061082;28;19928;-78
2023/06/08 12:09:55;;;;;;;;;;;24.20;53.90;;;;;;5053009;28;19935;-78
2023/06/08 12:12:27;;;;;;;;;;;24.20;53.70;;;;;;5059309;28;19928;-78
2023/06/08 12:14:56;;;;;;;;;;;24.30;53.60;;;;;;5055499;28;20291;-79
2023/06/08 12:17:25;;;;;;;;;;;24.40;53.40;;;;;;5055639;28;19936;-79
2023/06/08 12:19:52;;;;;;;;;;;24.50;53.00;;;;;;5056222;28;19950;-78
2023/06/08 12:22:19;;;;;;;;;;;24.50;52.60;;;;;;5056444;28;19928;-78
2023/06/08 12:24:45;;;;;;;;;;;24.60;51.40;;;;;;5057290;28;19937;-80
2023/06/08 12:27:12;;;;;;;;;;;24.70;51.20;;;;;;5056674;28;19936;-79
2023/06/08 12:29:39;;;;;;;;;;;24.70;51.10;;;;;;5054355;28;19982;-79
2023/06/08 12:32:07;;;;;;;;;;;24.80;51.30;;;;;;5059185;28;20364;-79
2023/06/08 12:34:34;;;;;;;;;;;24.90;51.30;;;;;;5062577;28;19936;-79
2023/06/08 12:37:00;;;;;;;;;;;24.90;51.10;;;;;;5062360;28;19928;-79
2023/06/08 12:39:27;;;;;;;;;;;24.90;50.80;;;;;;5059797;28;20710;-79
2023/06/08 12:41:53;;;;;;;;;;;25.00;49.80;;;;;;5058564;28;19932;-79
2023/06/08 12:44:20;;;;;;;;;;;25.10;50.10;;;;;;5053787;28;19928;-78
2023/06/08 12:46:46;;;;;;;;;;;25.10;50.30;;;;;;5052641;28;19928;-79
2023/06/08 12:49:14;;;;;;;;;;;25.20;50.40;;;;;;5055477;28;19971;-79
2023/06/08 12:51:41;;;;;;;;;;;25.30;50.20;;;;;;5050675;28;20341;-79
2023/06/08 12:54:07;;;;;;;;;;;25.30;50.10;;;;;;5055944;28;19962;-80
2023/06/08 12:56:34;;;;;;;;;;;25.40;50.10;;;;;;5059648;28;19932;-79
2023/06/08 12:59:01;;;;;;;;;;;25.40;50.10;;;;;;5062985;28;19943;-80
2023/06/08 13:01:27;;;;;;;;;;;25.50;49.90;;;;;;5054935;28;20113;-79
2023/06/08 13:03:54;;;;;;;;;;;25.50;48.80;;;;;;5054830;28;19932;-79
2023/06/08 13:06:22;;;;;;;;;;;25.60;49.10;;;;;;5055431;28;19928;-79
2023/06/08 13:08:48;;;;;;;;;;;25.60;48.80;;;;;;5053300;28;19932;-78
2023/06/08 13:11:15;;;;;;;;;;;25.70;48.10;;;;;;5060649;28;19951;-79
2023/06/08 13:13:42;;;;;;;;;;;25.70;47.40;;;;;;5053027;28;19928;-79
2023/06/08 13:16:08;;;;;;;;;;;25.80;48.10;;;;;;5056694;28;19929;-78
2023/06/08 13:18:35;;;;;;;;;;;25.80;47.90;;;;;;5058001;28;19961;-79
2023/06/08 13:21:02;;;;;;;;;;;25.90;48.10;;;;;;5059065;28;19933;-79
2023/06/08 13:23:30;;;;;;;;;;;26.00;48.10;;;;;;5055608;28;20034;-79
2023/06/08 13:25:57;;;;;;;;;;;26.00;48.10;;;;;;5058450;28;20036;-83
2023/06/08 13:28:23;;;;;;;;;;;26.10;48.20;;;;;;5047547;28;19951;-83
2023/06/08 13:30:50;;;;;;;;;;;26.20;47.90;;;;;;5054630;28;19936;-84
2023/06/08 13:33:16;;;;;;;;;;;26.30;47.90;;;;;;5047520;28;19932;-82
2023/06/08 13:35:44;;;;;;;;;;;26.30;48.00;;;;;;5055385;28;19986;-83
2023/06/08 13:38:12;;;;;;;;;;;26.30;47.70;;;;;;5057171;28;19971;-84
2023/06/08 13:40:39;;;;;;;;;;;26.30;47.70;;;;;;5057421;28;19928;-84
2023/06/08 13:43:09;;;;;;;;;;;26.30;47.80;;;;;;5054141;28;19928;-79
2023/06/08 13:45:36;;;;;;;;;;;26.40;48.00;;;;;;5051319;28;20309;-81
2023/06/08 13:48:03;;;;;;;;;;;26.40;47.90;;;;;;5060547;28;19932;-82
2023/06/08 13:50:29;;;;;;;;;;;26.40;48.00;;;;;;5048535;28;19991;-83
2023/06/08 13:52:56;;;;;;;;;;;26.40;48.30;;;;;;5049570;28;20336;-83
2023/06/08 13:55:23;;;;;;;;;;;26.40;48.50;;;;;;5051238;28;19929;-83
2023/06/08 13:57:51;;;;;;;;;;;26.40;48.60;;;;;;5058859;28;20615;-82
2023/06/08 14:00:18;;;;;;;;;;;26.40;48.60;;;;;;5045378;28;19944;-80
2023/06/08 14:02:47;;;;;;;;;;;26.30;47.70;;;;;;5053425;28;20355;-84
2023/06/08 14:05:17;;;;;;;;;;;26.30;48.30;;;;;;5048884;28;19975;-82
2023/06/08 14:07:43;;;;;;;;;;;26.40;48.20;;;;;;5054450;28;19937;-79
2023/06/08 14:10:10;;;;;;;;;;;26.30;48.70;;;;;;5057891;28;19985;-83
2023/06/08 14:12:37;;;;;;;;;;;26.30;48.00;;;;;;5051969;28;20063;-82
2023/06/08 14:15:06;;;;;;;;;;;26.30;47.60;;;;;;5052409;28;19939;-82
2023/06/08 14:17:33;;;;;;;;;;;26.40;47.50;;;;;;5054853;28;19933;-83